sensor_id;sensor_type;location;lat;lon;timestamp;temperature;humidity
9083;DHT22;4577;48.704;9.000;2024-01-07T00:00:12;5.30;99.90
9083;DHT22;4577;48.704;9.000;2024-01-07T00:02:38;5.20;99.90
9083;DHT22;4577;48.704;9.000;2024-01-07T00:05:04;5.20;99.90
9083;DHT22;4577;48.704;9.000;2024-01-07T00:07:30;5.10;99.90
9083;DHT22;4577;48.704;9.000;2024-01-07T00:09:55;5.70;99.90
9083;DHT22;4577;48.704;9.000;2024-01-07T00:12:21;5.20;99.90
9083;DHT22;4577;48.704;9.000;2024-01-07T00:17:13;5.30;99.90
9083;DHT22;4577;48.704;9.000;2024-01-07T00:22:05;5.30;99.90
9083;DHT22;4577;48.704;9.000;2024-01-07T00:26:57;5.90;99.90
9083;DHT22;4577;48.704;9.000;2024-01-07T00:31:49;5.30;99.90
9083;DHT22;4577;48.704;9.000;2024-01-07T00:34:14;5.30;99.90
9083;DHT22;4577;48.704;9.000;2024-01-07T00:36:40;5.40;99.90
9083;DHT22;4577;48.704;9.000;2024-01-07T00:39:06;5.00;99.90
9083;DHT22;4577;48.704;9.000;2024-01-07T00:41:31;4.80;99.90
9083;DHT22;4577;48.704;9.000;2024-01-07T00:43:57;4.60;99.90
9083;DHT22;4577;48.704;9.000;2024-01-07T00:46:23;4.80;99.90
9083;DHT22;4577;48.704;9.000;2024-01-07T00:48:48;4.90;99.90
9083;DHT22;4577;48.704;9.000;2024-01-07T00:51:14;5.00;99.90
9083;DHT22;4577;48.704;9.000;2024-01-07T00:53:40;4.50;99.90
9083;DHT22;4577;48.704;9.000;2024-01-07T00:56:06;4.70;99.90
9083;DHT22;4577;48.704;9.000;2024-01-07T00:58:32;4.60;99.90
9083;DHT22;4577;48.704;9.000;2024-01-07T01:00:57;4.60;99.90
9083;DHT22;4577;48.704;9.000;2024-01-07T01:03:25;4.70;99.90
9083;DHT22;4577;48.704;9.000;2024-01-07T01:08:20;4.70;99.90
9083;DHT22;4577;48.704;9.000;2024-01-07T01:10:48;4.40;99.90
9083;DHT22;4577;48.704;9.000;2024-01-07T01:13:15;4.40;99.90
9083;DHT22;4577;48.704;9.000;2024-01-07T01:15:41;4.40;99.90
9083;DHT22;4577;48.704;9.000;2024-01-07T01:18:07;4.40;99.90
9083;DHT22;4577;48.704;9.000;2024-01-07T01:20:33;4.40;99.90
9083;DHT22;4577;48.704;9.000;2024-01-07T01:22:59;4.50;99.90
9083;DHT22;4577;48.704;9.000;2024-01-07T01:25:26;4.40;99.90
9083;DHT22;4577;48.704;9.000;2024-01-07T01:27:52;4.50;99.90
9083;DHT22;4577;48.704;9.000;2024-01-07T01:30:19;4.50;99.90
9083;DHT22;4577;48.704;9.000;2024-01-07T01:32:45;5.10;99.90
9083;DHT22;4577;48.704;9.000;2024-01-07T01:35:11;4.40;99.90
9083;DHT22;4577;48.704;9.000;2024-01-07T01:37:37;4.90;99.90
9083;DHT22;4577;48.704;9.000;2024-01-07T01:40:04;4.30;99.90
9083;DHT22;4577;48.704;9.000;2024-01-07T01:42:30;4.40;99.90
9083;DHT22;4577;48.704;9.000;2024-01-07T01:44:56;4.50;99.90
9083;DHT22;4577;48.704;9.000;2024-01-07T01:47:25;4.50;99.90
9083;DHT22;4577;48.704;9.000;2024-01-07T01:49:51;4.50;99.90
9083;DHT22;4577;48.704;9.000;2024-01-07T01:52:18;4.50;99.90
9083;DHT22;4577;48.704;9.000;2024-01-07T01:54:45;4.40;99.90
9083;DHT22;4577;48.704;9.000;2024-01-07T01:57:17;4.30;99.90
9083;DHT22;4577;48.704;9.000;2024-01-07T01:59:46;4.20;99.90
9083;DHT22;4577;48.704;9.000;2024-01-07T02:02:13;4.20;99.90
9083;DHT22;4577;48.704;9.000;2024-01-07T02:04:40;4.00;99.90
9083;DHT22;4577;48.704;9.000;2024-01-07T02:07:06;5.00;99.90
9083;DHT22;4577;48.704;9.000;2024-01-07T02:09:32;4.20;99.90
9083;DHT22;4577;48.704;9.000;2024-01-07T02:12:05;3.90;99.90
9083;DHT22;4577;48.704;9.000;2024-01-07T02:14:31;4.20;99.90
9083;DHT22;4577;48.704;9.000;2024-01-07T02:16:57;4.20;99.90
9083;DHT22;4577;48.704;9.000;2024-01-07T02:19:23;4.20;99.90
9083;DHT22;4577;48.704;9.000;2024-01-07T02:21:53;4.20;99.90
9083;DHT22;4577;48.704;9.000;2024-01-07T02:24:19;4.30;99.90
9083;DHT22;4577;48.704;9.000;2024-01-07T02:26:45;4.40;99.90
9083;DHT22;4577;48.704;9.000;2024-01-07T02:29:11;4.50;99.90
9083;DHT22;4577;48.704;9.000;2024-01-07T02:31:37;4.40;99.90
9083;DHT22;4577;48.704;9.000;2024-01-07T02:34:03;4.50;99.90
9083;DHT22;4577;48.704;9.000;2024-01-07T02:36:30;4.60;99.90
9083;DHT22;4577;48.704;9.000;2024-01-07T02:38:56;4.60;99.90
9083;DHT22;4577;48.704;9.000;2024-01-07T02:41:22;4.50;99.90
9083;DHT22;4577;48.704;9.000;2024-01-07T02:43:51;4.30;99.90
9083;DHT22;4577;48.704;9.000;2024-01-07T02:46:16;4.50;99.90
9083;DHT22;4577;48.704;9.000;2024-01-07T02:48:42;4.50;99.90
9083;DHT22;4577;48.704;9.000;2024-01-07T02:51:08;4.60;99.90
9083;DHT22;4577;48.704;9.000;2024-01-07T02:53:34;4.60;99.90
9083;DHT22;4577;48.704;9.000;2024-01-07T02:56:00;4.60;99.90
9083;DHT22;4577;48.704;9.000;2024-01-07T02:58:26;4.60;99.90
9083;DHT22;4577;48.704;9.000;2024-01-07T03:00:51;4.50;99.90
9083;DHT22;4577;48.704;9.000;2024-01-07T03:03:17;4.60;99.90
9083;DHT22;4577;48.704;9.000;2024-01-07T03:05:43;4.60;99.90
9083;DHT22;4577;48.704;9.000;2024-01-07T03:08:08;4.70;99.90
9083;DHT22;4577;48.704;9.000;2024-01-07T03:10:34;4.20;99.90
9083;DHT22;4577;48.704;9.000;2024-01-07T03:13:00;4.60;99.90
9083;DHT22;4577;48.704;9.000;2024-01-07T03:15:26;4.50;99.90
9083;DHT22;4577;48.704;9.000;2024-01-07T03:17:52;4.50;99.90
9083;DHT22;4577;48.704;9.000;2024-01-07T03:20:18;4.60;99.90
9083;DHT22;4577;48.704;9.000;2024-01-07T03:22:43;4.60;99.90
9083;DHT22;4577;48.704;9.000;2024-01-07T03:25:09;4.70;99.90
9083;DHT22;4577;48.704;9.000;2024-01-07T03:27:35;4.40;99.90
9083;DHT22;4577;48.704;9.000;2024-01-07T03:30:01;4.40;99.90
9083;DHT22;4577;48.704;9.000;2024-01-07T03:32:26;4.40;99.90
9083;DHT22;4577;48.704;9.000;2024-01-07T03:34:52;4.60;99.90
9083;DHT22;4577;48.704;9.000;2024-01-07T03:37:18;4.50;99.90
9083;DHT22;4577;48.704;9.000;2024-01-07T03:39:44;4.60;99.90
9083;DHT22;4577;48.704;9.000;2024-01-07T03:42:10;4.70;99.90
9083;DHT22;4577;48.704;9.000;2024-01-07T03:44:40;4.70;99.90
9083;DHT22;4577;48.704;9.000;2024-01-07T03:47:08;4.80;99.90
9083;DHT22;4577;48.704;9.000;2024-01-07T03:49:36;4.80;99.90
9083;DHT22;4577;48.704;9.000;2024-01-07T03:52:02;4.80;99.90
9083;DHT22;4577;48.704;9.000;2024-01-07T03:54:27;4.60;99.90
9083;DHT22;4577;48.704;9.000;2024-01-07T03:56:53;4.70;99.90
9083;DHT22;4577;48.704;9.000;2024-01-07T03:59:19;4.90;99.90
9083;DHT22;4577;48.704;9.000;2024-01-07T04:01:44;4.70;99.90
9083;DHT22;4577;48.704;9.000;2024-01-07T04:04:10;4.60;99.90
9083;DHT22;4577;48.704;9.000;2024-01-07T04:06:36;4.70;99.90
9083;DHT22;4577;48.704;9.000;2024-01-07T04:09:01;4.70;99.90
9083;DHT22;4577;48.704;9.000;2024-01-07T04:11:28;4.70;99.90
9083;DHT22;4577;48.704;9.000;2024-01-07T04:13:54;4.80;99.90
9083;DHT22;4577;48.704;9.000;2024-01-07T04:16:20;5.20;99.90
9083;DHT22;4577;48.704;9.000;2024-01-07T04:18:46;4.80;99.90
9083;DHT22;4577;48.704;9.000;2024-01-07T04:21:13;4.50;99.90
9083;DHT22;4577;48.704;9.000;2024-01-07T04:23:39;4.60;99.90
9083;DHT22;4577;48.704;9.000;2024-01-07T04:26:09;4.70;99.90
9083;DHT22;4577;48.704;9.000;2024-01-07T04:28:35;4.70;99.90
9083;DHT22;4577;48.704;9.000;2024-01-07T04:31:00;4.70;99.90
9083;DHT22;4577;48.704;9.000;2024-01-07T04:33:26;4.50;99.90
9083;DHT22;4577;48.704;9.000;2024-01-07T04:35:52;4.60;99.90
9083;DHT22;4577;48.704;9.000;2024-01-07T04:38:17;4.60;99.90
9083;DHT22;4577;48.704;9.000;2024-01-07T04:40:43;5.30;99.90
9083;DHT22;4577;48.704;9.000;2024-01-07T04:43:08;4.60;99.90
9083;DHT22;4577;48.704;9.000;2024-01-07T04:45:34;4.60;99.90
9083;DHT22;4577;48.704;9.000;2024-01-07T04:48:00;4.60;99.90
9083;DHT22;4577;48.704;9.000;2024-01-07T04:50:25;4.60;99.90
9083;DHT22;4577;48.704;9.000;2024-01-07T04:52:51;4.60;99.90
9083;DHT22;4577;48.704;9.000;2024-01-07T04:55:17;4.70;99.90
9083;DHT22;4577;48.704;9.000;2024-01-07T04:57:42;4.60;99.90
9083;DHT22;4577;48.704;9.000;2024-01-07T05:00:08;4.60;99.90
9083;DHT22;4577;48.704;9.000;2024-01-07T05:02:34;4.70;99.90
9083;DHT22;4577;48.704;9.000;2024-01-07T05:05:00;4.50;99.90
9083;DHT22;4577;48.704;9.000;2024-01-07T05:07:26;4.50;99.90
9083;DHT22;4577;48.704;9.000;2024-01-07T05:09:51;4.10;99.90
9083;DHT22;4577;48.704;9.000;2024-01-07T05:12:17;4.50;99.90
9083;DHT22;4577;48.704;9.000;2024-01-07T05:14:42;4.70;99.90
9083;DHT22;4577;48.704;9.000;2024-01-07T05:17:10;4.70;99.90
9083;DHT22;4577;48.704;9.000;2024-01-07T05:19:35;4.50;99.90
9083;DHT22;4577;48.704;9.000;2024-01-07T05:22:01;4.60;99.90
9083;DHT22;4577;48.704;9.000;2024-01-07T05:24:26;4.60;99.90
9083;DHT22;4577;48.704;9.000;2024-01-07T05:26:53;4.60;99.90
9083;DHT22;4577;48.704;9.000;2024-01-07T05:29:18;4.60;99.90
9083;DHT22;4577;48.704;9.000;2024-01-07T05:31:44;4.60;99.90
9083;DHT22;4577;48.704;9.000;2024-01-07T05:34:10;4.60;99.90
9083;DHT22;4577;48.704;9.000;2024-01-07T05:36:35;4.70;99.90
9083;DHT22;4577;48.704;9.000;2024-01-07T05:39:01;4.60;99.90
9083;DHT22;4577;48.704;9.000;2024-01-07T05:41:27;4.60;99.90
9083;DHT22;4577;48.704;9.000;2024-01-07T05:43:53;4.70;99.90
9083;DHT22;4577;48.704;9.000;2024-01-07T05:46:19;4.30;99.90
9083;DHT22;4577;48.704;9.000;2024-01-07T05:48:46;4.50;99.90
9083;DHT22;4577;48.704;9.000;2024-01-07T05:51:12;4.50;99.90
9083;DHT22;4577;48.704;9.000;2024-01-07T05:53:39;4.80;99.90
9083;DHT22;4577;48.704;9.000;2024-01-07T05:56:04;4.60;99.90
9083;DHT22;4577;48.704;9.000;2024-01-07T05:58:30;4.60;99.90
9083;DHT22;4577;48.704;9.000;2024-01-07T06:00:56;4.60;99.90
9083;DHT22;4577;48.704;9.000;2024-01-07T06:03:22;4.60;99.90
9083;DHT22;4577;48.704;9.000;2024-01-07T06:05:48;4.60;99.90
9083;DHT22;4577;48.704;9.000;2024-01-07T06:08:13;4.70;99.90
9083;DHT22;4577;48.704;9.000;2024-01-07T06:10:40;4.60;99.90
9083;DHT22;4577;48.704;9.000;2024-01-07T06:13:06;4.60;99.90
9083;DHT22;4577;48.704;9.000;2024-01-07T06:15:32;4.60;99.90
9083;DHT22;4577;48.704;9.000;2024-01-07T06:17:57;4.60;99.90
9083;DHT22;4577;48.704;9.000;2024-01-07T06:20:23;4.50;99.90
9083;DHT22;4577;48.704;9.000;2024-01-07T06:22:49;4.20;99.90
9083;DHT22;4577;48.704;9.000;2024-01-07T06:25:15;4.10;99.90
9083;DHT22;4577;48.704;9.000;2024-01-07T06:27:41;4.40;99.90
9083;DHT22;4577;48.704;9.000;2024-01-07T06:30:07;4.50;99.90
9083;DHT22;4577;48.704;9.000;2024-01-07T06:32:34;4.30;99.90
9083;DHT22;4577;48.704;9.000;2024-01-07T06:35:00;4.60;99.90
9083;DHT22;4577;48.704;9.000;2024-01-07T06:37:26;4.50;99.90
9083;DHT22;4577;48.704;9.000;2024-01-07T06:39:54;4.50;99.90
9083;DHT22;4577;48.704;9.000;2024-01-07T06:42:20;4.50;99.90
9083;DHT22;4577;48.704;9.000;2024-01-07T06:44:46;4.40;99.90
9083;DHT22;4577;48.704;9.000;2024-01-07T06:47:11;4.20;99.90
9083;DHT22;4577;48.704;9.000;2024-01-07T06:49:37;4.50;99.90
9083;DHT22;4577;48.704;9.000;2024-01-07T06:52:04;4.40;99.90
9083;DHT22;4577;48.704;9.000;2024-01-07T06:54:30;4.30;99.90
9083;DHT22;4577;48.704;9.000;2024-01-07T06:56:56;4.30;99.90
9083;DHT22;4577;48.704;9.000;2024-01-07T06:59:21;4.40;99.90
9083;DHT22;4577;48.704;9.000;2024-01-07T07:01:47;4.40;99.90
9083;DHT22;4577;48.704;9.000;2024-01-07T07:04:13;4.40;99.90
9083;DHT22;4577;48.704;9.000;2024-01-07T07:06:38;3.90;99.90
9083;DHT22;4577;48.704;9.000;2024-01-07T07:09:04;4.30;99.90
9083;DHT22;4577;48.704;9.000;2024-01-07T07:11:30;4.10;99.90
9083;DHT22;4577;48.704;9.000;2024-01-07T07:13:56;3.90;99.90
9083;DHT22;4577;48.704;9.000;2024-01-07T07:16:23;4.30;99.90
9083;DHT22;4577;48.704;9.000;2024-01-07T07:18:48;4.40;99.90
9083;DHT22;4577;48.704;9.000;2024-01-07T07:21:14;4.30;99.90
9083;DHT22;4577;48.704;9.000;2024-01-07T07:23:40;4.20;99.90
9083;DHT22;4577;48.704;9.000;2024-01-07T07:26:05;4.20;99.90
9083;DHT22;4577;48.704;9.000;2024-01-07T07:28:32;4.30;99.90
9083;DHT22;4577;48.704;9.000;2024-01-07T07:36:05;3.90;99.90
9083;DHT22;4577;48.704;9.000;2024-01-07T07:38:31;4.10;99.90
9083;DHT22;4577;48.704;9.000;2024-01-07T07:43:25;4.90;99.90
9083;DHT22;4577;48.704;9.000;2024-01-07T07:45:51;4.00;99.90
9083;DHT22;4577;48.704;9.000;2024-01-07T07:48:18;4.20;99.90
9083;DHT22;4577;48.704;9.000;2024-01-07T07:50:44;4.30;99.90
9083;DHT22;4577;48.704;9.000;2024-01-07T07:53:13;4.30;99.90
9083;DHT22;4577;48.704;9.000;2024-01-07T07:55:38;4.20;99.90
9083;DHT22;4577;48.704;9.000;2024-01-07T07:58:04;4.00;99.90
9083;DHT22;4577;48.704;9.000;2024-01-07T08:00:33;4.20;99.90
9083;DHT22;4577;48.704;9.000;2024-01-07T08:02:59;4.10;99.90
9083;DHT22;4577;48.704;9.000;2024-01-07T08:05:25;3.70;99.90
9083;DHT22;4577;48.704;9.000;2024-01-07T08:10:16;3.70;99.90
9083;DHT22;4577;48.704;9.000;2024-01-07T08:15:08;4.00;99.90
9083;DHT22;4577;48.704;9.000;2024-01-07T08:17:34;4.00;99.90
9083;DHT22;4577;48.704;9.000;2024-01-07T08:22:29;3.90;99.90
9083;DHT22;4577;48.704;9.000;2024-01-07T08:29:46;4.60;99.90
9083;DHT22;4577;48.704;9.000;2024-01-07T08:32:12;3.80;99.90
9083;DHT22;4577;48.704;9.000;2024-01-07T08:34:39;3.80;99.90
9083;DHT22;4577;48.704;9.000;2024-01-07T08:37:05;4.00;99.90
9083;DHT22;4577;48.704;9.000;2024-01-07T08:39:31;3.80;99.90
9083;DHT22;4577;48.704;9.000;2024-01-07T08:41:56;4.00;99.90
9083;DHT22;4577;48.704;9.000;2024-01-07T08:44:22;3.90;99.90
9083;DHT22;4577;48.704;9.000;2024-01-07T08:46:48;3.80;99.90
9083;DHT22;4577;48.704;9.000;2024-01-07T08:49:14;4.60;99.90
9083;DHT22;4577;48.704;9.000;2024-01-07T08:54:09;4.00;99.90
9083;DHT22;4577;48.704;9.000;2024-01-07T08:56:35;3.40;99.90
9083;DHT22;4577;48.704;9.000;2024-01-07T09:06:27;4.10;99.90
9083;DHT22;4577;48.704;9.000;2024-01-07T09:13:45;4.10;99.90
9083;DHT22;4577;48.704;9.000;2024-01-07T09:16:13;4.00;99.90
9083;DHT22;4577;48.704;9.000;2024-01-07T09:18:39;3.90;99.90
9083;DHT22;4577;48.704;9.000;2024-01-07T09:23:31;4.70;99.90
9083;DHT22;4577;48.704;9.000;2024-01-07T09:25:59;3.70;99.90
9083;DHT22;4577;48.704;9.000;2024-01-07T09:28:25;3.40;99.90
9083;DHT22;4577;48.704;9.000;2024-01-07T09:33:16;3.70;99.90
9083;DHT22;4577;48.704;9.000;2024-01-07T09:43:01;4.10;99.90
9083;DHT22;4577;48.704;9.000;2024-01-07T09:45:28;4.00;99.90
9083;DHT22;4577;48.704;9.000;2024-01-07T09:50:22;4.10;99.90
9083;DHT22;4577;48.704;9.000;2024-01-07T09:52:48;4.00;99.90
9083;DHT22;4577;48.704;9.000;2024-01-07T09:55:26;3.50;99.90
9083;DHT22;4577;48.704;9.000;2024-01-07T10:00:20;4.10;99.90
9083;DHT22;4577;48.704;9.000;2024-01-07T10:02:45;4.00;99.90
9083;DHT22;4577;48.704;9.000;2024-01-07T10:07:38;4.10;99.90
9083;DHT22;4577;48.704;9.000;2024-01-07T10:10:14;4.10;99.90
9083;DHT22;4577;48.704;9.000;2024-01-07T10:12:40;4.00;99.90
9083;DHT22;4577;48.704;9.000;2024-01-07T10:15:05;4.00;99.90
9083;DHT22;4577;48.704;9.000;2024-01-07T10:19:57;3.90;99.90
9083;DHT22;4577;48.704;9.000;2024-01-07T10:24:51;3.80;99.90
9083;DHT22;4577;48.704;9.000;2024-01-07T10:32:10;3.90;99.90
9083;DHT22;4577;48.704;9.000;2024-01-07T10:37:04;3.90;99.90
9083;DHT22;4577;48.704;9.000;2024-01-07T10:39:33;3.60;99.90
9083;DHT22;4577;48.704;9.000;2024-01-07T10:42:00;3.30;99.90
9083;DHT22;4577;48.704;9.000;2024-01-07T10:44:30;3.70;99.90
9083;DHT22;4577;48.704;9.000;2024-01-07T10:46:57;3.70;99.90
9083;DHT22;4577;48.704;9.000;2024-01-07T10:49:28;3.70;99.90
9083;DHT22;4577;48.704;9.000;2024-01-07T10:52:06;3.70;99.90
9083;DHT22;4577;48.704;9.000;2024-01-07T10:54:33;4.00;99.90
9083;DHT22;4577;48.704;9.000;2024-01-07T10:59:29;3.70;99.90
9083;DHT22;4577;48.704;9.000;2024-01-07T11:07:46;3.30;99.90
9083;DHT22;4577;48.704;9.000;2024-01-07T11:10:18;3.40;99.90
9083;DHT22;4577;48.704;9.000;2024-01-07T11:12:56;3.50;99.90
9083;DHT22;4577;48.704;9.000;2024-01-07T11:18:19;3.60;99.90
9083;DHT22;4577;48.704;9.000;2024-01-07T11:20:46;3.80;99.90
9083;DHT22;4577;48.704;9.000;2024-01-07T11:23:30;3.50;99.90
9083;DHT22;4577;48.704;9.000;2024-01-07T11:26:01;3.60;99.90
9083;DHT22;4577;48.704;9.000;2024-01-07T11:31:12;3.50;99.90
9083;DHT22;4577;48.704;9.000;2024-01-07T11:33:38;3.20;99.90
9083;DHT22;4577;48.704;9.000;2024-01-07T11:36:06;3.50;99.90
9083;DHT22;4577;48.704;9.000;2024-01-07T11:38:34;3.50;99.90
9083;DHT22;4577;48.704;9.000;2024-01-07T11:41:00;3.30;99.90
9083;DHT22;4577;48.704;9.000;2024-01-07T11:48:20;3.40;99.90
9083;DHT22;4577;48.704;9.000;2024-01-07T11:53:12;3.40;99.90
9083;DHT22;4577;48.704;9.000;2024-01-07T11:55:38;3.40;99.90
9083;DHT22;4577;48.704;9.000;2024-01-07T11:58:04;3.20;99.90
9083;DHT22;4577;48.704;9.000;2024-01-07T12:00:33;3.40;99.90
9083;DHT22;4577;48.704;9.000;2024-01-07T12:03:02;3.40;99.90
9083;DHT22;4577;48.704;9.000;2024-01-07T12:05:29;3.30;99.90
9083;DHT22;4577;48.704;9.000;2024-01-07T12:10:23;3.20;99.90
9083;DHT22;4577;48.704;9.000;2024-01-07T12:12:49;3.40;99.90
9083;DHT22;4577;48.704;9.000;2024-01-07T12:15:16;3.40;99.90
9083;DHT22;4577;48.704;9.000;2024-01-07T12:17:42;2.80;99.90
9083;DHT22;4577;48.704;9.000;2024-01-07T12:20:08;3.50;99.90
9083;DHT22;4577;48.704;9.000;2024-01-07T12:22:38;3.40;99.90
9083;DHT22;4577;48.704;9.000;2024-01-07T12:25:06;3.30;99.80
9083;DHT22;4577;48.704;9.000;2024-01-07T12:27:33;3.30;99.90
9083;DHT22;4577;48.704;9.000;2024-01-07T12:29:59;3.20;99.90
9083;DHT22;4577;48.704;9.000;2024-01-07T12:32:31;3.30;99.90
9083;DHT22;4577;48.704;9.000;2024-01-07T12:35:01;3.20;99.90
9083;DHT22;4577;48.704;9.000;2024-01-07T12:37:27;3.30;99.90
9083;DHT22;4577;48.704;9.000;2024-01-07T12:39:56;3.20;99.90
9083;DHT22;4577;48.704;9.000;2024-01-07T12:47:16;2.90;99.90
9083;DHT22;4577;48.704;9.000;2024-01-07T12:52:08;3.00;99.90
9083;DHT22;4577;48.704;9.000;2024-01-07T12:57:00;2.80;99.90
9083;DHT22;4577;48.704;9.000;2024-01-07T13:04:18;2.90;99.90
9083;DHT22;4577;48.704;9.000;2024-01-07T13:06:45;3.00;99.90
9083;DHT22;4577;48.704;9.000;2024-01-07T13:11:37;2.80;99.90
9083;DHT22;4577;48.704;9.000;2024-01-07T13:14:03;2.90;99.90
9083;DHT22;4577;48.704;9.000;2024-01-07T13:18:55;2.90;99.90
9083;DHT22;4577;48.704;9.000;2024-01-07T13:23:47;2.20;99.90
9083;DHT22;4577;48.704;9.000;2024-01-07T13:26:16;2.50;99.90
9083;DHT22;4577;48.704;9.000;2024-01-07T13:28:41;2.40;99.90
9083;DHT22;4577;48.704;9.000;2024-01-07T13:31:08;2.70;99.90
9083;DHT22;4577;48.704;9.000;2024-01-07T13:36:03;2.60;99.90
9083;DHT22;4577;48.704;9.000;2024-01-07T13:38:34;2.40;99.90
9083;DHT22;4577;48.704;9.000;2024-01-07T13:41:00;2.60;99.90
9083;DHT22;4577;48.704;9.000;2024-01-07T13:43:25;2.70;99.90
9083;DHT22;4577;48.704;9.000;2024-01-07T13:45:55;2.40;99.90
9083;DHT22;4577;48.704;9.000;2024-01-07T13:48:20;2.20;99.90
9083;DHT22;4577;48.704;9.000;2024-01-07T13:50:46;1.90;99.90
9083;DHT22;4577;48.704;9.000;2024-01-07T13:53:13;2.30;99.90
9083;DHT22;4577;48.704;9.000;2024-01-07T13:55:40;2.20;99.90
9083;DHT22;4577;48.704;9.000;2024-01-07T13:58:05;2.40;99.90
9083;DHT22;4577;48.704;9.000;2024-01-07T14:02:57;2.30;99.90
9083;DHT22;4577;48.704;9.000;2024-01-07T14:07:49;2.60;99.90
9083;DHT22;4577;48.704;9.000;2024-01-07T14:15:07;2.00;99.90
9083;DHT22;4577;48.704;9.000;2024-01-07T14:20:00;2.00;99.90
9083;DHT22;4577;48.704;9.000;2024-01-07T14:22:26;2.00;99.70
9083;DHT22;4577;48.704;9.000;2024-01-07T14:24:52;2.20;99.90
9083;DHT22;4577;48.704;9.000;2024-01-07T14:29:44;2.30;99.90
9083;DHT22;4577;48.704;9.000;2024-01-07T14:34:41;2.40;99.90
9083;DHT22;4577;48.704;9.000;2024-01-07T14:37:07;2.00;99.80
9083;DHT22;4577;48.704;9.000;2024-01-07T14:39:37;2.40;99.90
9083;DHT22;4577;48.704;9.000;2024-01-07T14:44:30;2.30;99.90
9083;DHT22;4577;48.704;9.000;2024-01-07T14:46:55;2.60;99.90
9083;DHT22;4577;48.704;9.000;2024-01-07T14:49:21;3.00;99.90
9083;DHT22;4577;48.704;9.000;2024-01-07T14:54:13;2.60;99.90
9083;DHT22;4577;48.704;9.000;2024-01-07T14:59:05;2.50;99.90
9083;DHT22;4577;48.704;9.000;2024-01-07T15:01:31;2.00;99.90
9083;DHT22;4577;48.704;9.000;2024-01-07T15:03:56;2.10;99.90
9083;DHT22;4577;48.704;9.000;2024-01-07T15:06:22;2.20;99.70
9083;DHT22;4577;48.704;9.000;2024-01-07T15:08:49;1.90;99.90
9083;DHT22;4577;48.704;9.000;2024-01-07T15:13:42;2.20;99.90
9083;DHT22;4577;48.704;9.000;2024-01-07T15:16:09;2.20;99.90
9083;DHT22;4577;48.704;9.000;2024-01-07T15:25:53;2.50;99.90
9083;DHT22;4577;48.704;9.000;2024-01-07T15:30:45;2.30;99.90
9083;DHT22;4577;48.704;9.000;2024-01-07T15:33:10;2.50;99.90
9083;DHT22;4577;48.704;9.000;2024-01-07T15:35:36;2.30;99.90
9083;DHT22;4577;48.704;9.000;2024-01-07T15:38:02;2.10;99.90
9083;DHT22;4577;48.704;9.000;2024-01-07T15:40:27;2.20;99.90
9083;DHT22;4577;48.704;9.000;2024-01-07T15:42:53;1.90;99.90
9083;DHT22;4577;48.704;9.000;2024-01-07T15:45:19;2.10;99.90
9083;DHT22;4577;48.704;9.000;2024-01-07T15:47:44;2.10;99.90
9083;DHT22;4577;48.704;9.000;2024-01-07T15:55:02;2.20;99.90
9083;DHT22;4577;48.704;9.000;2024-01-07T15:57:28;2.20;99.90
9083;DHT22;4577;48.704;9.000;2024-01-07T15:59:53;2.30;99.90
9083;DHT22;4577;48.704;9.000;2024-01-07T16:02:19;2.00;99.90
9083;DHT22;4577;48.704;9.000;2024-01-07T16:04:45;2.30;99.90
9083;DHT22;4577;48.704;9.000;2024-01-07T16:19:27;1.60;99.90
9083;DHT22;4577;48.704;9.000;2024-01-07T16:26:45;1.90;99.90
9083;DHT22;4577;48.704;9.000;2024-01-07T16:31:37;1.80;99.90
9083;DHT22;4577;48.704;9.000;2024-01-07T16:34:02;1.70;99.90
9083;DHT22;4577;48.704;9.000;2024-01-07T16:36:29;1.20;99.90
9083;DHT22;4577;48.704;9.000;2024-01-07T16:38:55;1.70;99.90
9083;DHT22;4577;48.704;9.000;2024-01-07T16:41:22;1.80;99.90
9083;DHT22;4577;48.704;9.000;2024-01-07T16:43:47;1.50;99.90
9083;DHT22;4577;48.704;9.000;2024-01-07T16:46:13;1.50;99.90
9083;DHT22;4577;48.704;9.000;2024-01-07T16:48:39;1.70;99.90
9083;DHT22;4577;48.704;9.000;2024-01-07T16:51:05;1.80;99.90
9083;DHT22;4577;48.704;9.000;2024-01-07T16:53:37;1.80;99.90
9083;DHT22;4577;48.704;9.000;2024-01-07T16:56:07;1.90;99.90
9083;DHT22;4577;48.704;9.000;2024-01-07T16:58:33;1.70;99.90
9083;DHT22;4577;48.704;9.000;2024-01-07T17:00:59;1.30;99.90
9083;DHT22;4577;48.704;9.000;2024-01-07T17:03:25;1.50;99.90
9083;DHT22;4577;48.704;9.000;2024-01-07T17:10:46;1.30;99.90
9083;DHT22;4577;48.704;9.000;2024-01-07T17:15:37;1.30;99.90
9083;DHT22;4577;48.704;9.000;2024-01-07T17:20:35;1.20;99.90
9083;DHT22;4577;48.704;9.000;2024-01-07T17:23:03;1.40;99.90
9083;DHT22;4577;48.704;9.000;2024-01-07T17:27:55;1.60;99.90
9083;DHT22;4577;48.704;9.000;2024-01-07T17:30:20;1.30;99.90
9083;DHT22;4577;48.704;9.000;2024-01-07T17:32:55;1.20;99.90
9083;DHT22;4577;48.704;9.000;2024-01-07T17:37:47;1.10;99.90
9083;DHT22;4577;48.704;9.000;2024-01-07T17:40:13;0.90;99.90
9083;DHT22;4577;48.704;9.000;2024-01-07T17:42:40;1.20;99.90
9083;DHT22;4577;48.704;9.000;2024-01-07T17:45:06;0.90;99.90
9083;DHT22;4577;48.704;9.000;2024-01-07T17:47:40;0.60;99.90
9083;DHT22;4577;48.704;9.000;2024-01-07T17:50:07;0.90;99.90
9083;DHT22;4577;48.704;9.000;2024-01-07T17:55:00;0.80;99.90
9083;DHT22;4577;48.704;9.000;2024-01-07T17:57:27;1.40;99.90
9083;DHT22;4577;48.704;9.000;2024-01-07T17:59:57;1.30;99.90
9083;DHT22;4577;48.704;9.000;2024-01-07T18:02:25;0.90;99.90
9083;DHT22;4577;48.704;9.000;2024-01-07T18:04:51;1.20;99.90
9083;DHT22;4577;48.704;9.000;2024-01-07T18:07:16;0.80;99.90
9083;DHT22;4577;48.704;9.000;2024-01-07T18:09:44;1.50;99.90
9083;DHT22;4577;48.704;9.000;2024-01-07T18:12:15;0.50;99.90
9083;DHT22;4577;48.704;9.000;2024-01-07T18:14:42;0.50;99.90
9083;DHT22;4577;48.704;9.000;2024-01-07T18:19:34;0.50;99.90
9083;DHT22;4577;48.704;9.000;2024-01-07T18:26:58;0.60;99.90
9083;DHT22;4577;48.704;9.000;2024-01-07T18:29:26;0.70;99.90
9083;DHT22;4577;48.704;9.000;2024-01-07T18:31:52;0.40;99.90
9083;DHT22;4577;48.704;9.000;2024-01-07T18:34:19;0.50;99.90
9083;DHT22;4577;48.704;9.000;2024-01-07T18:36:45;0.20;99.90
9083;DHT22;4577;48.704;9.000;2024-01-07T18:39:11;0.20;99.90
9083;DHT22;4577;48.704;9.000;2024-01-07T18:41:37;-0.10;99.90
9083;DHT22;4577;48.704;9.000;2024-01-07T18:44:06;0.40;99.90
9083;DHT22;4577;48.704;9.000;2024-01-07T18:46:32;0.30;99.90
9083;DHT22;4577;48.704;9.000;2024-01-07T18:48:58;0.60;99.90
9083;DHT22;4577;48.704;9.000;2024-01-07T18:51:24;0.10;99.90
9083;DHT22;4577;48.704;9.000;2024-01-07T18:53:50;0.20;99.90
9083;DHT22;4577;48.704;9.000;2024-01-07T18:56:19;0.20;99.90
9083;DHT22;4577;48.704;9.000;2024-01-07T18:58:44;-0.20;99.90
9083;DHT22;4577;48.704;9.000;2024-01-07T19:01:12;0.00;99.90
9083;DHT22;4577;48.704;9.000;2024-01-07T19:03:38;-0.20;99.90
9083;DHT22;4577;48.704;9.000;2024-01-07T19:06:03;0.00;99.90
9083;DHT22;4577;48.704;9.000;2024-01-07T19:10:55;0.00;99.90
9083;DHT22;4577;48.704;9.000;2024-01-07T19:13:21;0.10;99.90
9083;DHT22;4577;48.704;9.000;2024-01-07T19:15:47;-0.10;99.90
9083;DHT22;4577;48.704;9.000;2024-01-07T19:18:13;-0.10;99.90
9083;DHT22;4577;48.704;9.000;2024-01-07T19:20:39;-0.10;99.90
9083;DHT22;4577;48.704;9.000;2024-01-07T19:25:33;-0.30;99.90
9083;DHT22;4577;48.704;9.000;2024-01-07T19:28:01;-0.10;99.60
9083;DHT22;4577;48.704;9.000;2024-01-07T19:30:27;-0.40;99.90
9083;DHT22;4577;48.704;9.000;2024-01-07T19:32:55;-0.10;99.90
9083;DHT22;4577;48.704;9.000;2024-01-07T19:35:21;-0.30;99.90
9083;DHT22;4577;48.704;9.000;2024-01-07T19:37:46;-0.20;99.90
9083;DHT22;4577;48.704;9.000;2024-01-07T19:40:12;-0.40;99.90
9083;DHT22;4577;48.704;9.000;2024-01-07T19:49:57;0.00;99.90
9083;DHT22;4577;48.704;9.000;2024-01-07T19:54:49;-0.20;99.60
9083;DHT22;4577;48.704;9.000;2024-01-07T19:57:15;-0.30;99.90